createdAt,value
2022-12-13T00:01:30.593Z,90.17
2022-12-13T00:04:00.261Z,90.19
2022-12-13T00:06:28.916Z,88.80
2022-12-13T00:08:56.727Z,88.32
2022-12-13T00:11:24.484Z,88.14
2022-12-13T00:13:53.984Z,89.27
2022-12-13T00:16:23.751Z,89.42
2022-12-13T00:18:53.997Z,91.58
2022-12-13T00:21:23.171Z,89.99
2022-12-13T00:23:51.114Z,90.06
2022-12-13T00:26:20.814Z,90.34
2022-12-13T00:28:51.101Z,90.01
2022-12-13T00:34:09.927Z,87.86
2022-12-13T00:36:37.732Z,88.67
2022-12-13T00:39:05.729Z,89.06
2022-12-13T00:41:35.789Z,88.12
2022-12-13T00:44:05.576Z,88.31
2022-12-13T00:46:34.697Z,89.41
2022-12-13T00:49:02.841Z,89.23
2022-12-13T00:51:33.263Z,88.45
2022-12-13T00:54:02.003Z,87.55
2022-12-13T00:56:31.847Z,89.14
2022-12-13T00:59:00.536Z,88.78
2022-12-13T01:01:30.090Z,88.63
2022-12-13T01:04:01.997Z,88.67
2022-12-13T01:06:34.008Z,87.61
2022-12-13T01:09:02.257Z,87.88
2022-12-13T01:11:30.339Z,87.49
2022-12-13T01:13:58.168Z,88.07
2022-12-13T01:16:26.007Z,88.92
2022-12-13T01:18:53.940Z,88.17
2022-12-13T01:21:23.084Z,88.82
2022-12-13T01:23:51.222Z,89.62
2022-12-13T01:26:21.505Z,89.08
2022-12-13T01:28:49.729Z,91.45
2022-12-13T01:31:20.891Z,91.75
2022-12-13T01:33:49.342Z,89.63
2022-12-13T01:36:20.006Z,89.30
2022-12-13T01:38:58.132Z,89.11
2022-12-13T01:41:27.747Z,90.25
2022-12-13T01:44:00.934Z,88.58
2022-12-13T01:46:29.035Z,88.87
2022-12-13T01:49:02.820Z,88.89
2022-12-13T01:51:35.509Z,88.61
2022-12-13T01:54:07.578Z,88.17
2022-12-13T01:56:40.028Z,87.79
2022-12-13T01:59:10.163Z,87.58
2022-12-13T02:01:39.321Z,87.46
2022-12-13T02:04:08.151Z,87.35
2022-12-13T02:06:37.988Z,87.57
2022-12-13T02:09:09.082Z,88.34
2022-12-13T02:11:39.253Z,88.82
2022-12-13T02:14:07.089Z,88.71
2022-12-13T02:16:45.899Z,87.03
2022-12-13T02:19:50.824Z,88.02
2022-12-13T02:22:41.491Z,87.46
2022-12-13T02:25:29.447Z,87.00
2022-12-13T02:28:31.757Z,87.10
2022-12-13T02:31:09.242Z,85.28
2022-12-13T02:33:46.236Z,85.81
2022-12-13T02:36:22.292Z,85.06
2022-12-13T02:38:57.604Z,84.42
2022-12-13T02:41:34.479Z,83.71
2022-12-13T02:44:22.445Z,83.71
2022-12-13T02:46:56.660Z,83.25
2022-12-13T02:49:25.695Z,83.69
2022-12-13T02:51:54.737Z,84.18
2022-12-13T02:54:22.531Z,84.25
2022-12-13T02:56:56.635Z,84.21
2022-12-13T02:59:29.126Z,82.75
2022-12-13T03:02:11.132Z,83.67
2022-12-13T03:05:07.257Z,84.55
2022-12-13T03:07:43.675Z,84.60
2022-12-13T03:10:20.217Z,83.60
2022-12-13T03:13:12.985Z,83.71
2022-12-13T03:15:46.337Z,82.63
2022-12-13T03:18:19.052Z,83.70
2022-12-13T03:20:48.752Z,83.39
2022-12-13T03:23:18.370Z,84.56
2022-12-13T03:25:48.470Z,84.21
2022-12-13T03:28:16.479Z,85.50
2022-12-13T03:30:44.441Z,84.67
2022-12-13T03:33:12.249Z,85.02
2022-12-13T03:35:45.393Z,86.04
2022-12-13T03:38:21.601Z,86.54
2022-12-13T03:40:53.854Z,84.71
2022-12-13T03:43:22.943Z,83.88
2022-12-13T03:45:52.154Z,84.80
2022-12-13T03:48:22.790Z,84.34
2022-12-13T03:50:53.663Z,83.18
2022-12-13T03:53:32.138Z,83.13
2022-12-13T03:56:02.056Z,83.29
2022-12-13T03:58:36.429Z,83.30
2022-12-13T04:01:06.961Z,83.13
2022-12-13T04:03:34.971Z,82.84
2022-12-13T04:06:05.002Z,83.70
2022-12-13T04:08:32.786Z,83.16
2022-12-13T04:11:20.659Z,82.68
2022-12-13T04:13:47.439Z,83.12
2022-12-13T04:16:15.492Z,81.98
2022-12-13T04:18:43.445Z,83.08
2022-12-13T04:21:12.629Z,82.68
2022-12-13T04:23:40.417Z,82.73
2022-12-13T04:26:08.160Z,82.07
2022-12-13T04:28:36.033Z,81.22
2022-12-13T04:31:03.859Z,81.54
2022-12-13T04:33:32.812Z,81.19
2022-12-13T04:36:01.011Z,80.81
2022-12-13T04:38:30.224Z,80.99
2022-12-13T04:41:06.965Z,80.83
2022-12-13T04:43:34.799Z,79.70
2022-12-13T04:46:02.760Z,79.08
2022-12-13T04:48:32.415Z,79.06
2022-12-13T04:51:01.112Z,78.24
2022-12-13T04:53:31.520Z,79.32
2022-12-13T04:55:59.364Z,80.28
2022-12-13T04:58:27.196Z,81.77
2022-12-13T05:00:55.065Z,82.04
2022-12-13T05:03:23.365Z,81.03
2022-12-13T05:05:51.429Z,79.94
2022-12-13T05:08:19.315Z,77.00
2022-12-13T05:10:48.553Z,74.86
2022-12-13T05:13:16.421Z,76.98
2022-12-13T05:15:44.131Z,76.57
2022-12-13T05:18:12.036Z,77.87
2022-12-13T05:20:40.315Z,78.94
2022-12-13T05:23:08.367Z,81.29
2022-12-13T05:25:36.853Z,79.71
2022-12-13T05:28:08.973Z,78.27
2022-12-13T05:30:55.034Z,78.83
2022-12-13T05:33:22.991Z,78.49
2022-12-13T05:35:52.950Z,80.19
2022-12-13T05:38:24.128Z,80.76
2022-12-13T05:40:52.229Z,80.68
2022-12-13T05:43:22.196Z,80.49
2022-12-13T05:45:50.521Z,80.87
2022-12-13T05:48:24.923Z,80.56
2022-12-13T05:51:11.037Z,80.82
2022-12-13T05:53:40.344Z,79.49
2022-12-13T05:56:08.573Z,78.90
2022-12-13T05:58:38.329Z,77.62
2022-12-13T06:01:07.989Z,78.82
2022-12-13T06:03:36.063Z,76.65
2022-12-13T06:06:04.233Z,76.65
2022-12-13T06:08:32.371Z,75.65
2022-12-13T06:11:10.917Z,75.78
2022-12-13T06:13:43.267Z,78.75
2022-12-13T06:16:22.739Z,80.76
2022-12-13T06:18:57.488Z,80.04
2022-12-13T06:21:40.772Z,80.81
2022-12-13T06:24:14.533Z,82.56
2022-12-13T06:26:42.448Z,83.77
2022-12-13T06:29:24.245Z,84.63
2022-12-13T06:31:54.801Z,82.83
2022-12-13T06:34:29.735Z,83.10
2022-12-13T06:36:57.600Z,82.70
2022-12-13T06:39:25.876Z,82.36
2022-12-13T06:42:01.467Z,83.48
2022-12-13T06:44:30.687Z,83.28
2022-12-13T06:47:11.473Z,82.34
2022-12-13T06:49:42.695Z,84.49
2022-12-13T06:52:11.981Z,83.24
2022-12-13T06:54:40.019Z,83.78
2022-12-13T06:57:08.200Z,83.16
2022-12-13T06:59:37.410Z,82.21
2022-12-13T07:02:05.335Z,83.21
2022-12-13T07:04:33.915Z,82.77
2022-12-13T07:07:02.740Z,82.84
2022-12-13T07:09:31.358Z,81.49
2022-12-13T07:11:59.287Z,81.44
2022-12-13T07:14:27.507Z,81.56
2022-12-13T07:17:03.062Z,80.66
2022-12-13T07:19:35.317Z,81.50
2022-12-13T07:22:05.561Z,82.18
2022-12-13T07:24:33.553Z,80.97
2022-12-13T07:27:01.287Z,81.42
2022-12-13T07:29:29.067Z,80.21
2022-12-13T07:32:01.381Z,80.14
2022-12-13T07:34:30.512Z,79.39
2022-12-13T07:36:58.496Z,78.97
2022-12-13T07:39:27.013Z,77.75
2022-12-13T07:41:55.988Z,78.48
2022-12-13T07:44:23.829Z,79.31
2022-12-13T07:46:51.673Z,76.63
2022-12-13T07:49:20.900Z,74.38
2022-12-13T07:51:49.109Z,75.40
2022-12-13T07:54:16.949Z,78.23
2022-12-13T07:56:45.917Z,80.01
2022-12-13T07:59:14.342Z,79.54
2022-12-13T08:01:42.465Z,83.12
2022-12-13T08:04:10.375Z,81.42
2022-12-13T08:06:40.445Z,82.01
2022-12-13T08:09:08.243Z,80.05
2022-12-13T08:11:36.029Z,75.82
2022-12-13T08:14:04.311Z,78.76
2022-12-13T08:16:32.101Z,80.34
2022-12-13T08:19:02.192Z,80.91
2022-12-13T08:24:24.807Z,81.52
2022-12-13T08:26:52.620Z,78.86
2022-12-13T08:29:23.362Z,77.79
2022-12-13T08:32:02.438Z,77.31
2022-12-13T08:34:31.622Z,77.63
2022-12-13T08:37:01.701Z,76.52
2022-12-13T08:39:34.431Z,76.98
2022-12-13T08:42:15.022Z,75.23
2022-12-13T08:44:45.370Z,76.04
2022-12-13T08:47:13.417Z,76.46
2022-12-13T08:49:53.339Z,75.20
2022-12-13T08:52:22.479Z,76.19
2022-12-13T08:54:51.884Z,75.84
2022-12-13T08:57:19.718Z,75.56
2022-12-13T08:59:47.463Z,73.59
2022-12-13T09:02:16.269Z,73.69
2022-12-13T09:04:44.810Z,76.58
2022-12-13T09:07:12.560Z,75.39
2022-12-13T09:09:40.415Z,76.62
2022-12-13T09:12:10.218Z,78.62
2022-12-13T09:14:45.571Z,81.36
2022-12-13T09:17:24.475Z,81.49
2022-12-13T09:19:58.521Z,80.05
2022-12-13T09:22:32.846Z,79.37
2022-12-13T09:25:02.348Z,77.51
2022-12-13T09:27:39.847Z,78.45
2022-12-13T09:30:13.080Z,79.92
2022-12-13T09:32:42.125Z,79.63
2022-12-13T09:35:10.839Z,79.16
2022-12-13T09:37:45.548Z,80.52
2022-12-13T09:40:25.258Z,79.36
2022-12-13T09:43:12.254Z,79.19
2022-12-13T09:45:44.888Z,79.61
2022-12-13T09:48:22.445Z,78.25
2022-12-13T09:50:58.553Z,80.68
2022-12-13T09:53:41.800Z,80.36
2022-12-13T09:56:13.021Z,80.79
2022-12-13T09:58:43.781Z,80.11
2022-12-13T10:01:13.982Z,82.06
2022-12-13T10:03:53.202Z,81.69
2022-12-13T10:06:23.825Z,79.61
2022-12-13T10:08:58.410Z,80.12
2022-12-13T10:11:31.432Z,79.21
2022-12-13T10:14:03.993Z,79.82
2022-12-13T10:16:43.750Z,78.14
2022-12-13T10:19:29.520Z,79.27
2022-12-13T10:22:02.158Z,79.56
2022-12-13T10:24:48.304Z,78.28
2022-12-13T10:27:18.914Z,77.42
2022-12-13T10:30:05.868Z,76.50
2022-12-13T10:32:43.246Z,75.82
2022-12-13T10:35:23.730Z,77.00
2022-12-13T10:37:51.901Z,78.65
2022-12-13T10:40:33.881Z,76.54
2022-12-13T10:43:22.102Z,77.30
2022-12-13T10:46:01.027Z,76.80
2022-12-13T10:48:38.677Z,76.17
2022-12-13T10:51:10.273Z,76.34
2022-12-13T10:53:46.914Z,75.28
2022-12-13T10:56:22.968Z,75.82
2022-12-13T10:59:15.135Z,76.05
2022-12-13T11:01:46.984Z,74.53
2022-12-13T11:04:27.859Z,76.13
2022-12-13T11:06:56.704Z,73.89
2022-12-13T11:09:38.752Z,74.15
2022-12-13T11:12:16.518Z,74.99
2022-12-13T11:14:54.212Z,75.32
2022-12-13T11:17:26.872Z,75.92
2022-12-13T11:19:57.489Z,74.84
2022-12-13T11:22:28.050Z,74.60
2022-12-13T11:25:01.189Z,75.13
2022-12-13T11:27:47.137Z,73.89
2022-12-13T11:30:22.772Z,73.66
2022-12-13T11:33:07.501Z,74.08
2022-12-13T11:35:50.043Z,73.16
2022-12-13T11:38:27.032Z,73.14
2022-12-13T11:41:00.248Z,72.57
2022-12-13T11:43:33.926Z,73.07
2022-12-13T11:46:06.145Z,73.29
2022-12-13T11:48:42.234Z,73.34
2022-12-13T11:51:14.157Z,74.26
2022-12-13T11:53:52.149Z,75.40
2022-12-13T11:56:25.917Z,73.87
2022-12-13T11:59:11.278Z,72.61
2022-12-13T12:01:51.915Z,72.24
2022-12-13T12:04:32.294Z,72.40
2022-12-13T12:07:31.353Z,73.35
2022-12-13T12:10:04.276Z,74.38
2022-12-13T12:12:34.726Z,73.08
2022-12-13T12:15:16.112Z,72.89
2022-12-13T12:17:44.905Z,72.90
2022-12-13T12:20:23.255Z,71.83
2022-12-13T12:23:02.416Z,71.88
2022-12-13T12:25:45.355Z,73.51
2022-12-13T12:28:26.654Z,73.65
2022-12-13T12:31:01.798Z,72.22
2022-12-13T12:33:37.460Z,72.96
2022-12-13T12:36:26.797Z,71.96
2022-12-13T12:39:15.184Z,72.12
2022-12-13T12:41:54.125Z,72.31
2022-12-13T12:44:37.335Z,70.98
2022-12-13T12:50:29.562Z,72.44
2022-12-13T12:53:12.569Z,72.92
2022-12-13T12:55:53.719Z,74.60
2022-12-13T12:58:31.457Z,73.09
2022-12-13T13:01:17.514Z,72.68
2022-12-13T13:03:46.396Z,71.85
2022-12-13T13:06:19.509Z,70.46
2022-12-13T13:08:56.421Z,71.07
2022-12-13T13:11:26.253Z,70.88
2022-12-13T13:14:08.208Z,71.46
2022-12-13T13:16:39.009Z,71.74
2022-12-13T13:19:07.264Z,71.13
2022-12-13T13:21:43.876Z,69.54
2022-12-13T13:24:24.762Z,71.51
2022-12-13T13:26:55.290Z,70.88
2022-12-13T13:29:38.888Z,71.71
2022-12-13T13:32:32.228Z,70.68
2022-12-13T13:35:50.968Z,72.35
2022-12-13T13:38:55.159Z,70.32
2022-12-13T13:41:56.002Z,70.97
2022-12-13T13:44:51.852Z,72.44
2022-12-13T13:47:48.843Z,74.04
2022-12-13T13:51:08.656Z,73.43
2022-12-13T13:54:03.028Z,75.00
2022-12-13T13:56:56.971Z,75.48
2022-12-13T14:00:15.002Z,74.69
2022-12-13T14:03:33.145Z,74.03
2022-12-13T14:06:35.936Z,75.44
2022-12-13T14:09:22.851Z,76.11
2022-12-13T14:12:33.098Z,76.33
2022-12-13T14:15:40.407Z,77.62
2022-12-13T14:18:43.761Z,77.39
2022-12-13T14:21:20.516Z,77.15
2022-12-13T14:24:00.158Z,76.85
2022-12-13T14:27:01.872Z,77.75
2022-12-13T14:29:34.899Z,76.35
2022-12-13T14:32:03.202Z,75.00
2022-12-13T14:34:32.592Z,75.53
2022-12-13T14:37:02.556Z,76.10
2022-12-13T14:39:31.324Z,75.39
2022-12-13T14:42:01.387Z,75.74
2022-12-13T14:44:32.297Z,74.21
2022-12-13T14:47:02.177Z,74.57
2022-12-13T14:49:32.330Z,73.48
2022-12-13T14:52:03.959Z,73.81
2022-12-13T14:54:41.043Z,73.85
2022-12-13T14:57:18.263Z,75.08
2022-12-13T14:59:50.413Z,74.58
2022-12-13T15:02:30.307Z,73.84
2022-12-13T15:05:00.759Z,73.47
2022-12-13T15:07:32.506Z,75.83
2022-12-13T15:10:04.231Z,76.04
2022-12-13T15:12:32.654Z,76.82
2022-12-13T15:15:04.112Z,76.19
2022-12-13T15:17:35.191Z,76.02
2022-12-13T15:20:21.659Z,76.04
2022-12-13T15:23:00.251Z,77.24
2022-12-13T15:25:28.281Z,76.52
2022-12-13T15:27:57.000Z,76.59
2022-12-13T15:30:30.762Z,78.02
2022-12-13T15:33:07.783Z,78.11
2022-12-13T15:35:38.417Z,77.90
2022-12-13T15:38:06.435Z,78.49
2022-12-13T15:40:35.018Z,78.88
2022-12-13T15:43:02.905Z,79.06
2022-12-13T15:45:36.958Z,78.15
2022-12-13T15:48:05.752Z,79.83
2022-12-13T15:50:36.097Z,79.84
2022-12-13T15:53:06.350Z,78.85
2022-12-13T15:55:36.621Z,80.21
2022-12-13T15:58:04.992Z,80.84
2022-12-13T16:00:36.309Z,80.16
2022-12-13T16:03:10.003Z,81.29
2022-12-13T16:05:40.249Z,79.67
2022-12-13T16:08:20.110Z,80.60
2022-12-13T16:10:49.013Z,81.71
2022-12-13T16:13:26.174Z,81.98
2022-12-13T16:16:00.221Z,83.22
2022-12-13T16:18:44.643Z,82.38
2022-12-13T16:21:12.542Z,81.87
2022-12-13T16:23:40.322Z,82.48
2022-12-13T16:26:23.215Z,82.49
2022-12-13T16:28:51.095Z,82.95
2022-12-13T16:31:24.241Z,82.69
2022-12-13T16:33:52.597Z,82.51
2022-12-13T16:36:22.915Z,83.33
2022-12-13T16:38:51.386Z,82.99
2022-12-13T16:41:19.323Z,82.43
2022-12-13T16:43:53.671Z,82.28
2022-12-13T16:47:16.910Z,82.51
2022-12-13T16:49:21.117Z,83.89
2022-12-13T16:51:49.634Z,83.55
2022-12-13T16:54:18.724Z,83.14
2022-12-13T16:56:46.510Z,84.09
2022-12-13T16:59:15.677Z,83.09
2022-12-13T17:01:45.651Z,83.92
2022-12-13T17:04:19.557Z,83.40
2022-12-13T17:06:48.969Z,85.05
2022-12-13T17:09:17.108Z,85.30
2022-12-13T17:11:44.835Z,84.23
2022-12-13T17:14:12.688Z,83.58
2022-12-13T17:16:40.476Z,81.80
2022-12-13T17:19:10.910Z,81.56
2022-12-13T17:21:38.720Z,82.08
2022-12-13T17:24:08.063Z,82.97
2022-12-13T17:26:36.275Z,82.36
2022-12-13T17:29:04.511Z,82.25
2022-12-13T17:31:35.853Z,83.49
2022-12-13T17:34:04.353Z,83.14
2022-12-13T17:36:33.504Z,83.12
2022-12-13T17:39:01.876Z,84.11
2022-12-13T17:41:29.803Z,85.56
2022-12-13T17:44:00.722Z,85.54
2022-12-13T17:46:28.516Z,86.03
2022-12-13T17:48:56.353Z,85.19
2022-12-13T17:51:24.295Z,84.60
2022-12-13T17:53:53.809Z,84.51
2022-12-13T17:56:22.003Z,83.61
2022-12-13T17:58:50.185Z,84.58
2022-12-13T18:01:20.438Z,83.32
2022-12-13T18:03:49.083Z,83.74
2022-12-13T18:06:17.341Z,83.61
2022-12-13T18:08:46.769Z,82.37
2022-12-13T18:11:33.069Z,82.27
2022-12-13T18:14:02.403Z,84.32
2022-12-13T18:16:36.226Z,85.62
2022-12-13T18:19:07.049Z,85.14
2022-12-13T18:21:35.686Z,84.51
2022-12-13T18:24:03.646Z,84.67
2022-12-13T18:26:32.971Z,84.03
2022-12-13T18:29:00.853Z,83.16
2022-12-13T18:31:28.733Z,82.64
2022-12-13T18:33:56.783Z,81.90
2022-12-13T18:36:26.456Z,83.37
2022-12-13T18:38:54.617Z,84.52
2022-12-13T18:41:24.716Z,83.84
2022-12-13T18:43:59.585Z,83.60
2022-12-13T18:46:28.769Z,84.11
2022-12-13T18:48:57.865Z,83.51
2022-12-13T18:51:26.164Z,84.33
2022-12-13T18:53:54.969Z,84.62
2022-12-13T18:56:23.300Z,85.23
2022-12-13T18:58:52.370Z,85.32
2022-12-13T19:01:22.815Z,84.57
2022-12-13T19:03:52.266Z,84.20
2022-12-13T19:06:22.270Z,85.91
2022-12-13T19:08:51.337Z,85.62
2022-12-13T19:11:19.948Z,85.58
2022-12-13T19:13:48.352Z,84.92
2022-12-13T19:16:18.855Z,86.95
2022-12-13T19:18:48.439Z,88.44
2022-12-13T19:21:18.776Z,87.38
2022-12-13T19:23:53.261Z,86.51
2022-12-13T19:26:23.547Z,88.22
2022-12-13T19:28:51.513Z,86.07
2022-12-13T19:31:19.379Z,86.33
2022-12-13T19:33:48.963Z,86.15
2022-12-13T19:36:16.889Z,85.03
2022-12-13T19:38:44.917Z,85.29
2022-12-13T19:41:15.148Z,86.76
2022-12-13T19:43:46.565Z,88.23
2022-12-13T19:46:20.471Z,87.05
2022-12-13T19:48:49.676Z,84.79
2022-12-13T19:51:17.830Z,85.84
2022-12-13T19:53:45.677Z,85.51
2022-12-13T19:56:17.473Z,84.86
2022-12-13T19:58:45.845Z,83.69
2022-12-13T20:01:14.141Z,85.34
2022-12-13T20:03:43.661Z,85.93
2022-12-13T20:06:15.975Z,86.35
2022-12-13T20:08:43.938Z,86.12
2022-12-13T20:11:14.223Z,86.64
2022-12-13T20:13:42.549Z,86.02
2022-12-13T20:16:16.139Z,85.92
2022-12-13T20:18:44.039Z,86.29
2022-12-13T20:21:14.803Z,87.30
2022-12-13T20:23:48.967Z,86.91
2022-12-13T20:26:19.140Z,86.06
2022-12-13T20:28:47.330Z,86.39
2022-12-13T20:31:16.531Z,84.72
2022-12-13T20:33:44.275Z,84.96
2022-12-13T20:36:25.063Z,84.43
2022-12-13T20:38:53.336Z,84.00
2022-12-13T20:41:21.166Z,83.83
2022-12-13T20:43:52.576Z,83.34
2022-12-13T20:46:20.970Z,84.60
2022-12-13T20:48:49.926Z,86.20
2022-12-13T20:51:20.629Z,85.26
2022-12-13T20:53:49.893Z,87.64
2022-12-13T20:56:20.364Z,88.23
2022-12-13T20:58:48.397Z,90.86
2022-12-13T21:01:17.978Z,92.95
2022-12-13T21:03:46.635Z,92.53
2022-12-13T21:06:14.722Z,96.90
2022-12-13T21:08:52.888Z,96.23
2022-12-13T21:11:27.823Z,97.22
2022-12-13T21:14:05.645Z,98.95
2022-12-13T21:16:38.806Z,99.82
2022-12-13T21:19:07.700Z,100.00
2022-12-13T21:21:35.924Z,98.19
2022-12-13T21:24:05.981Z,97.61
2022-12-13T21:26:36.094Z,96.70
2022-12-13T21:29:07.231Z,97.19
2022-12-13T21:31:35.700Z,97.15
2022-12-13T21:34:05.186Z,99.32
2022-12-13T21:36:34.470Z,100.00
2022-12-13T21:39:05.174Z,100.00
2022-12-13T21:41:34.680Z,100.00
2022-12-13T21:44:02.575Z,100.00
2022-12-13T21:47:02.925Z,100.00
2022-12-13T21:49:18.686Z,100.00
2022-12-13T21:51:48.337Z,100.00
2022-12-13T21:54:16.890Z,100.00
2022-12-13T21:57:03.251Z,100.00
2022-12-13T21:59:31.699Z,100.00
2022-12-13T22:02:14.756Z,100.00
2022-12-13T22:04:44.635Z,100.00
2022-12-13T22:07:14.283Z,100.00
2022-12-13T22:09:42.282Z,100.00
2022-12-13T22:12:18.991Z,100.00
2022-12-13T22:14:47.372Z,100.00
2022-12-13T22:17:15.683Z,100.00
2022-12-13T22:19:43.544Z,100.00
2022-12-13T22:22:16.819Z,100.00
2022-12-13T22:24:49.901Z,100.00
2022-12-13T22:27:24.072Z,100.00
2022-12-13T22:29:52.577Z,100.00
2022-12-13T22:32:20.545Z,100.00
2022-12-13T22:34:48.423Z,100.00
2022-12-13T22:37:16.605Z,100.00
2022-12-13T22:39:44.476Z,100.00
2022-12-13T22:42:12.393Z,100.00
2022-12-13T22:44:41.582Z,100.00
2022-12-13T22:47:09.377Z,100.00
2022-12-13T22:49:37.150Z,100.00
2022-12-13T22:52:05.234Z,100.00
2022-12-13T22:54:33.101Z,100.00
2022-12-13T22:57:00.840Z,100.00
2022-12-13T22:59:28.684Z,100.00
2022-12-13T23:02:02.644Z,100.00
2022-12-13T23:04:31.718Z,100.00
2022-12-13T23:06:59.606Z,100.00
2022-12-13T23:09:27.432Z,100.00
2022-12-13T23:12:12.599Z,100.00
2022-12-13T23:14:40.459Z,100.00
2022-12-13T23:17:09.622Z,100.00
2022-12-13T23:19:48.842Z,100.00
2022-12-13T23:22:17.056Z,100.00
2022-12-13T23:24:44.812Z,100.00
2022-12-13T23:27:12.544Z,100.00
2022-12-13T23:29:40.460Z,100.00
2022-12-13T23:32:09.714Z,100.00
2022-12-13T23:34:37.632Z,100.00
2022-12-13T23:37:05.359Z,100.00
2022-12-13T23:39:33.245Z,100.00
2022-12-13T23:42:00.993Z,100.00
2022-12-13T23:44:28.747Z,100.00
2022-12-13T23:46:56.468Z,100.00
2022-12-13T23:49:25.720Z,100.00
2022-12-13T23:51:54.159Z,100.00
2022-12-13T23:54:21.913Z,100.00
2022-12-13T23:56:49.648Z,100.00
2022-12-13T23:59:17.979Z,100.00
